Nokesville, Virginia
Current Conditions -  °F | °C
As of 5:15 AM on Friday 19 Dec 2014 (Local Time) from KHEF Reporting Station
Overcast Overcast  
Wind Chill: 30°   Ceiling: 10000
Heat Index: 34°   Visibility: 10mi
Dew Point: 25°   Wind: 5mph
Humidity: 70%   Direction: 360°N
Pressure: 30.13"   Gusts: NA
Location:  38.7°N, 77.58°W
Report Text: KHEF 191015Z 36004KT 10SM OVC100 01/M04 A3013 RMK AO1
Loading
Personal Weather Stations






























Interactive Weather Map New forecast layout! Learn more

10-Day Weather Forecast

Advertisements
Track Severe Weather on mobile